Time;durP1;ratioP1;P1;durP2;ratioP2;P2;SDS_P1;SDS_P2;PMS_P1;PMS_P2;Temp;Humidity;BMP_temperature;BMP_pressure;BME280_temperature;BME280_humidity;BME280_pressure;Samples;Min_cycle;Max_cycle;Signal;HPM_P1;HPM_P2
2024/02/27 00:00:59;;;;;;;10.73;9.63;;;6.40;1.00;;;;;;5111925;27;21014;-75
2024/02/27 00:03:27;;;;;;;9.80;8.88;;;6.40;1.00;;;;;;5111536;27;20591;-75
2024/02/27 00:05:54;;;;;;;11.97;9.67;;;6.40;1.00;;;;;;5094215;28;20276;-75
2024/02/27 00:08:21;;;;;;;10.87;9.87;;;6.30;1.00;;;;;;5097841;27;20966;-76
2024/02/27 00:10:48;;;;;;;9.80;8.80;;;6.40;1.00;;;;;;5092331;28;21408;-74
2024/02/27 00:13:15;;;;;;;9.23;8.43;;;6.40;1.00;;;;;;5092597;28;20304;-75
2024/02/27 00:15:42;;;;;;;10.98;9.18;;;6.40;1.00;;;;;;5094445;27;20274;-75
2024/02/27 00:18:13;;;;;;;9.57;8.57;;;6.50;1.00;;;;;;5092896;28;20280;-75
2024/02/27 00:20:42;;;;;;;9.50;8.60;;;6.50;1.00;;;;;;5091383;28;20472;-72
2024/02/27 00:23:09;;;;;;;12.88;9.40;;;6.50;1.00;;;;;;5089357;28;20458;-75
2024/02/27 00:25:36;;;;;;;11.23;9.37;;;6.50;1.00;;;;;;5100298;27;20721;-73
2024/02/27 00:28:04;;;;;;;10.20;9.20;;;6.60;1.00;;;;;;5091460;27;20425;-73
2024/02/27 00:30:31;;;;;;;12.77;10.37;;;6.60;1.00;;;;;;5087936;28;20570;-74
2024/02/27 00:32:57;;;;;;;10.90;9.90;;;6.60;1.00;;;;;;5107705;27;20471;-75
2024/02/27 00:35:24;;;;;;;11.80;10.80;;;6.60;1.00;;;;;;5089465;28;20239;-73
2024/02/27 00:37:53;;;;;;;13.32;10.43;;;6.60;1.00;;;;;;5088391;28;20454;-73
2024/02/27 00:40:20;;;;;;;11.70;9.73;;;6.60;1.00;;;;;;5087387;28;20297;-73
2024/02/27 00:42:47;;;;;;;10.15;8.93;;;6.60;1.00;;;;;;5089411;28;20311;-74
2024/02/27 00:45:14;;;;;;;10.18;9.23;;;6.60;1.00;;;;;;5088095;28;20382;-72
2024/02/27 00:47:40;;;;;;;9.13;8.33;;;6.60;1.00;;;;;;5089387;28;20696;-74
2024/02/27 00:50:10;;;;;;;9.52;8.60;;;6.60;1.00;;;;;;5085629;28;20553;-74
2024/02/27 00:52:37;;;;;;;9.73;8.82;;;6.60;1.00;;;;;;5086467;28;20237;-72
2024/02/27 00:55:06;;;;;;;9.37;8.37;;;6.50;1.00;;;;;;5087682;28;20338;-74
2024/02/27 00:57:34;;;;;;;8.63;7.70;;;6.40;1.00;;;;;;5090923;28;20453;-73
2024/02/27 01:00:08;;;;;;;8.80;7.90;;;6.40;1.00;;;;;;5089618;28;20477;-74
2024/02/27 01:02:35;;;;;;;10.05;9.07;;;6.30;1.00;;;;;;5102666;27;20795;-74
2024/02/27 01:05:03;;;;;;;8.77;7.93;;;6.20;1.00;;;;;;5089630;28;20245;-77
2024/02/27 01:07:30;;;;;;;9.40;8.15;;;6.20;1.00;;;;;;5090059;28;20250;-74
2024/02/27 01:09:57;;;;;;;9.73;8.70;;;6.30;1.00;;;;;;5087493;28;20265;-73
2024/02/27 01:12:26;;;;;;;8.70;8.00;;;6.30;1.00;;;;;;5105070;27;20295;-72
2024/02/27 01:14:53;;;;;;;10.80;8.95;;;6.30;1.00;;;;;;5089216;28;20240;-74
2024/02/27 01:17:20;;;;;;;11.33;9.50;;;6.30;1.00;;;;;;5087124;28;20238;-73
2024/02/27 01:19:47;;;;;;;10.60;9.03;;;6.20;1.00;;;;;;5091779;28;20500;-76
2024/02/27 01:22:25;;;;;;;12.02;9.45;;;6.20;1.00;;;;;;5093153;28;20547;-73
2024/02/27 01:24:53;;;;;;;9.88;8.63;;;6.20;1.00;;;;;;5086406;27;20729;-74
2024/02/27 01:27:20;;;;;;;9.90;8.90;;;6.20;1.00;;;;;;5086578;27;20257;-74
2024/02/27 01:29:48;;;;;;;11.10;8.93;;;6.30;1.00;;;;;;5090490;27;20470;-72
2024/02/27 01:32:15;;;;;;;10.07;8.57;;;6.30;1.00;;;;;;5092569;27;20328;-72
2024/02/27 01:34:42;;;;;;;9.80;8.70;;;6.20;1.00;;;;;;5094889;27;20247;-72
2024/02/27 01:37:09;;;;;;;10.73;9.03;;;6.20;1.00;;;;;;5088521;28;20240;-72
2024/02/27 01:39:36;;;;;;;12.03;8.53;;;6.20;1.00;;;;;;5088931;28;20504;-70
2024/02/27 01:42:05;;;;;;;9.95;8.95;;;6.20;1.00;;;;;;5089285;28;20600;-73
2024/02/27 01:44:32;;;;;;;10.05;9.05;;;6.30;1.00;;;;;;5089486;28;20265;-73
2024/02/27 01:47:01;;;;;;;8.90;8.07;;;6.40;1.00;;;;;;5087945;28;21073;-75
2024/02/27 01:49:29;;;;;;;9.30;8.40;;;6.30;1.00;;;;;;5088667;28;20558;-73
2024/02/27 01:51:56;;;;;;;9.52;8.73;;;6.30;1.00;;;;;;5085236;28;21291;-73
2024/02/27 01:54:26;;;;;;;9.25;8.43;;;6.30;1.00;;;;;;5088042;28;20243;-72
2024/02/27 01:56:54;;;;;;;9.80;8.90;;;6.30;1.00;;;;;;5094293;27;20233;-74
2024/02/27 01:59:22;;;;;;;10.57;9.50;;;6.30;1.00;;;;;;5093462;27;20498;-74
2024/02/27 02:01:51;;;;;;;8.73;7.93;;;6.30;1.00;;;;;;5109450;27;20238;-73
2024/02/27 02:04:20;;;;;;;9.40;8.60;;;6.30;1.00;;;;;;5099127;27;20262;-75
2024/02/27 02:06:47;;;;;;;10.20;8.50;;;6.40;1.00;;;;;;5089053;28;21155;-73
2024/02/27 02:09:14;;;;;;;9.48;8.45;;;6.40;1.00;;;;;;5086713;28;20238;-73
2024/02/27 02:11:42;;;;;;;9.35;8.50;;;6.40;1.00;;;;;;5091430;28;20324;-73
2024/02/27 02:14:09;;;;;;;9.50;8.50;;;6.40;1.00;;;;;;5090583;28;20328;-72
2024/02/27 02:16:36;;;;;;;8.10;7.40;;;6.40;1.00;;;;;;5092263;28;20499;-73
2024/02/27 02:19:03;;;;;;;9.40;8.60;;;6.50;1.00;;;;;;5090936;27;21033;-74
2024/02/27 02:21:33;;;;;;;8.60;7.90;;;6.50;1.00;;;;;;5112287;27;20475;-73
2024/02/27 02:24:02;;;;;;;8.50;7.80;;;6.50;1.00;;;;;;5112974;27;20456;-72
2024/02/27 02:26:30;;;;;;;8.73;7.97;;;6.50;1.00;;;;;;5100301;27;20257;-72
2024/02/27 02:28:58;;;;;;;10.80;8.70;;;6.60;1.00;;;;;;5092339;28;20560;-72
2024/02/27 02:31:27;;;;;;;7.97;7.07;;;6.60;1.00;;;;;;5109969;27;21199;-72
2024/02/27 02:33:54;;;;;;;9.20;8.30;;;6.60;1.00;;;;;;5113136;27;20488;-70
2024/02/27 02:36:21;;;;;;;9.13;8.33;;;6.70;1.00;;;;;;5114663;27;20465;-72
2024/02/27 02:38:50;;;;;;;8.00;7.20;;;6.70;1.00;;;;;;5112658;27;20874;-74
2024/02/27 02:41:16;;;;;;;8.60;7.45;;;6.70;1.00;;;;;;5100918;27;20270;-74
2024/02/27 02:43:43;;;;;;;8.70;7.80;;;6.70;1.00;;;;;;5093336;28;20334;-74
2024/02/27 02:46:10;;;;;;;12.80;8.50;;;6.70;1.00;;;;;;5091217;28;20499;-73
2024/02/27 02:48:38;;;;;;;8.97;8.10;;;6.70;1.00;;;;;;5093205;28;20563;-73
2024/02/27 02:51:06;;;;;;;8.10;7.30;;;6.70;1.00;;;;;;5092682;28;21059;-73
2024/02/27 02:53:34;;;;;;;9.07;8.17;;;6.70;1.00;;;;;;5093309;28;20480;-74
2024/02/27 02:56:02;;;;;;;8.20;7.40;;;6.70;1.00;;;;;;5088414;28;20457;-73
2024/02/27 02:58:29;;;;;;;9.50;8.50;;;6.60;1.00;;;;;;5093415;28;20445;-74
2024/02/27 03:00:56;;;;;;;9.47;7.60;;;6.70;1.00;;;;;;5092515;28;20461;-71
2024/02/27 03:03:23;;;;;;;9.87;7.63;;;6.70;1.00;;;;;;5091502;28;20459;-76
2024/02/27 03:05:50;;;;;;;8.20;7.40;;;6.70;1.00;;;;;;5092821;28;20468;-73
2024/02/27 03:08:17;;;;;;;7.97;7.20;;;6.60;1.00;;;;;;5091839;28;21070;-73
2024/02/27 03:10:44;;;;;;;10.60;7.97;;;6.70;1.00;;;;;;5089617;28;20544;-73
2024/02/27 03:13:12;;;;;;;12.00;6.87;;;6.60;1.00;;;;;;5101373;27;20575;-74
2024/02/27 03:15:39;;;;;;;7.60;6.90;;;6.60;1.00;;;;;;5090509;27;21339;-74
2024/02/27 03:18:06;;;;;;;8.30;7.50;;;6.60;1.00;;;;;;5097028;27;20468;-73
2024/02/27 03:20:33;;;;;;;9.93;7.47;;;6.50;1.00;;;;;;5099985;27;22497;-74
2024/02/27 03:23:00;;;;;;;7.85;7.18;;;6.50;1.00;;;;;;5091300;28;20464;-73
2024/02/27 03:25:27;;;;;;;8.07;7.27;;;6.50;1.00;;;;;;5092536;28;20795;-74
2024/02/27 03:27:55;;;;;;;7.97;7.22;;;6.40;1.00;;;;;;5089269;28;20928;-73
2024/02/27 03:30:23;;;;;;;9.33;6.60;;;6.40;1.00;;;;;;5091851;28;20243;-72
2024/02/27 03:32:50;;;;;;;10.03;7.20;;;6.40;1.00;;;;;;5090634;27;20462;-74
2024/02/27 03:35:17;;;;;;;8.77;7.90;;;6.40;1.00;;;;;;5092895;28;20957;-73
2024/02/27 03:37:44;;;;;;;8.63;7.73;;;6.30;1.00;;;;;;5110970;27;20552;-72
2024/02/27 03:40:11;;;;;;;7.60;6.70;;;6.30;1.00;;;;;;5100815;27;21375;-73
2024/02/27 03:42:39;;;;;;;10.60;7.33;;;6.20;1.00;;;;;;5092037;28;20243;-73
2024/02/27 03:45:09;;;;;;;9.50;7.90;;;6.20;1.00;;;;;;5096914;27;20548;-73
2024/02/27 03:47:37;;;;;;;7.72;7.03;;;6.20;1.00;;;;;;5093996;27;20465;-74
2024/02/27 03:50:04;;;;;;;10.82;8.55;;;6.10;1.00;;;;;;5090356;28;20332;-73
2024/02/27 03:52:31;;;;;;;8.83;7.93;;;6.10;1.00;;;;;;5092301;28;20243;-74
2024/02/27 03:54:58;;;;;;;9.47;8.53;;;6.00;1.00;;;;;;5100945;27;20453;-74
2024/02/27 03:57:25;;;;;;;8.65;7.40;;;6.00;1.00;;;;;;5088439;28;20555;-73
2024/02/27 03:59:52;;;;;;;9.75;7.63;;;6.00;1.00;;;;;;5089142;28;21113;-72
2024/02/27 04:02:19;;;;;;;9.13;8.25;;;5.90;1.00;;;;;;5090672;28;20254;-73
2024/02/27 04:04:47;;;;;;;9.48;7.97;;;6.00;1.00;;;;;;5092937;28;20289;-72
2024/02/27 04:07:14;;;;;;;10.23;9.18;;;6.00;1.00;;;;;;5088306;27;21092;-74
2024/02/27 04:09:41;;;;;;;9.73;8.30;;;5.90;1.00;;;;;;5087953;28;20581;-72
2024/02/27 04:12:08;;;;;;;9.65;8.30;;;5.90;1.00;;;;;;5091651;28;20733;-72
2024/02/27 04:14:35;;;;;;;8.88;7.97;;;5.90;1.00;;;;;;5088037;28;20326;-73
2024/02/27 04:17:02;;;;;;;10.18;8.93;;;5.90;1.00;;;;;;5069927;28;20281;-72
2024/02/27 04:19:29;;;;;;;9.38;8.48;;;5.90;1.00;;;;;;5087469;28;20265;-72
2024/02/27 04:21:57;;;;;;;10.23;8.32;;;5.80;1.00;;;;;;5092635;28;21073;-72
2024/02/27 04:24:24;;;;;;;15.40;10.43;;;5.90;1.00;;;;;;5083864;28;20272;-72
2024/02/27 04:26:51;;;;;;;12.27;10.15;;;5.80;1.00;;;;;;5099110;27;20295;-73
2024/02/27 04:29:18;;;;;;;13.15;11.80;;;5.80;1.00;;;;;;5090392;28;20709;-72
2024/02/27 04:31:46;;;;;;;12.35;10.57;;;5.80;1.00;;;;;;5096192;28;20248;-73
2024/02/27 04:34:13;;;;;;;13.23;11.05;;;5.80;1.00;;;;;;5087424;28;20236;-73
2024/02/27 04:36:46;;;;;;;14.95;11.45;;;5.80;1.00;;;;;;5100846;27;20268;-73
2024/02/27 04:39:16;;;;;;;13.45;11.23;;;5.80;1.00;;;;;;5098553;27;20234;-73
2024/02/27 04:41:43;;;;;;;13.70;11.15;;;5.80;1.00;;;;;;5099084;27;20252;-73
2024/02/27 04:44:12;;;;;;;12.48;10.50;;;5.80;1.00;;;;;;5099563;27;20237;-73
2024/02/27 04:46:39;;;;;;;16.13;11.07;;;5.90;1.00;;;;;;5092523;28;20245;-73
2024/02/27 04:49:05;;;;;;;15.43;10.80;;;5.90;1.00;;;;;;5092545;28;20315;-73
2024/02/27 04:51:32;;;;;;;11.50;10.23;;;5.90;1.00;;;;;;5087319;28;20294;-73
2024/02/27 04:53:59;;;;;;;16.25;11.82;;;5.90;1.00;;;;;;5092261;27;20240;-71
2024/02/27 04:56:27;;;;;;;13.00;11.60;;;5.90;1.00;;;;;;5090904;28;20263;-73
2024/02/27 04:58:54;;;;;;;12.50;10.93;;;5.90;1.00;;;;;;5090192;28;20296;-72
2024/02/27 05:01:21;;;;;;;15.23;11.25;;;5.80;1.00;;;;;;5091661;28;20238;-73
2024/02/27 05:03:48;;;;;;;19.75;12.07;;;5.90;1.00;;;;;;5085294;28;20237;-73
2024/02/27 05:06:15;;;;;;;13.43;12.02;;;5.80;1.00;;;;;;5088559;28;20236;-72
2024/02/27 05:08:42;;;;;;;13.32;10.93;;;5.80;1.00;;;;;;5089864;28;20934;-73
2024/02/27 05:11:09;;;;;;;14.90;11.27;;;5.70;1.00;;;;;;5086807;28;21250;-73
2024/02/27 05:13:37;;;;;;;18.70;12.25;;;5.70;1.00;;;;;;5088039;28;20236;-73
2024/02/27 05:16:07;;;;;;;15.10;11.30;;;5.70;1.00;;;;;;5084017;27;20292;-72
2024/02/27 05:18:34;;;;;;;14.43;11.55;;;5.60;1.00;;;;;;5087610;28;20233;-72
2024/02/27 05:21:04;;;;;;;15.98;11.73;;;5.60;1.00;;;;;;5093154;27;20250;-72
2024/02/27 05:23:31;;;;;;;12.63;10.60;;;5.70;1.00;;;;;;5105756;27;20233;-72
2024/02/27 05:26:01;;;;;;;12.93;11.30;;;5.70;1.00;;;;;;5092624;27;20321;-73
2024/02/27 05:28:28;;;;;;;12.00;10.20;;;5.70;1.00;;;;;;5090330;28;20305;-74
2024/02/27 05:30:56;;;;;;;11.70;10.45;;;5.70;1.00;;;;;;5092170;28;20994;-72
2024/02/27 05:33:23;;;;;;;12.60;10.77;;;5.60;1.00;;;;;;5087692;28;20248;-72
2024/02/27 05:35:50;;;;;;;21.23;12.32;;;5.60;1.00;;;;;;5087718;28;21040;-75
2024/02/27 05:38:17;;;;;;;14.18;12.57;;;5.60;1.00;;;;;;5086971;28;20233;-72
2024/02/27 05:40:45;;;;;;;13.93;11.15;;;5.60;1.00;;;;;;5087236;28;21022;-73
2024/02/27 05:43:12;;;;;;;13.23;12.00;;;5.60;1.00;;;;;;5097379;28;20834;-72
2024/02/27 05:45:38;;;;;;;13.90;10.88;;;5.60;1.00;;;;;;5098051;27;21291;-73
2024/02/27 05:48:09;;;;;;;17.85;10.90;;;5.60;1.00;;;;;;5088468;27;20328;-71
2024/02/27 05:50:36;;;;;;;13.23;11.77;;;5.60;1.00;;;;;;5091211;28;20343;-72
2024/02/27 05:53:04;;;;;;;20.70;11.20;;;5.60;1.00;;;;;;5088395;28;20264;-73
2024/02/27 05:55:32;;;;;;;13.00;11.02;;;5.50;1.00;;;;;;5087350;27;21002;-73
2024/02/27 05:58:00;;;;;;;14.02;10.93;;;5.60;1.00;;;;;;5089945;27;20271;-73
2024/02/27 06:00:27;;;;;;;12.25;11.05;;;5.60;1.00;;;;;;5106853;27;20314;-73
2024/02/27 06:02:55;;;;;;;18.58;12.18;;;5.60;1.00;;;;;;5095103;27;20319;-74
2024/02/27 06:05:26;;;;;;;19.42;12.98;;;5.50;1.00;;;;;;5094730;28;20297;-73
2024/02/27 06:07:54;;;;;;;21.95;14.40;;;5.40;1.00;;;;;;5090507;28;20295;-73
2024/02/27 06:10:21;;;;;;;12.82;11.27;;;5.40;1.00;;;;;;5092658;28;20238;-75
2024/02/27 06:12:48;;;;;;;20.33;12.40;;;5.50;1.00;;;;;;5091993;28;20241;-71
2024/02/27 06:15:17;;;;;;;16.27;14.63;;;5.50;1.00;;;;;;5090665;28;20238;-73
2024/02/27 06:17:44;;;;;;;13.52;12.13;;;5.40;1.00;;;;;;5090567;28;20332;-72
2024/02/27 06:22:10;;;;;;;21.55;12.90;;;5.40;1.00;;;;;;5090521;28;20260;-73
2024/02/27 06:23:00;;;;;;;13.85;11.60;;;5.40;1.00;;;;;;5086013;28;21069;-75
2024/02/27 06:25:27;;;;;;;21.40;13.68;;;5.30;1.00;;;;;;5090577;28;20237;-74
2024/02/27 06:27:53;;;;;;;19.80;12.60;;;5.30;1.00;;;;;;5088287;28;20266;-72
2024/02/27 06:30:20;;;;;;;15.50;12.68;;;5.30;1.00;;;;;;5091804;28;20238;-72
2024/02/27 06:32:48;;;;;;;28.60;16.25;;;5.30;1.00;;;;;;5089287;28;20237;-74
2024/02/27 06:35:15;;;;;;;22.20;15.98;;;5.30;1.00;;;;;;5089232;28;20291;-73
2024/02/27 06:37:42;;;;;;;17.45;15.63;;;5.20;1.00;;;;;;5088495;28;20728;-74
2024/02/27 06:40:12;;;;;;;20.67;14.35;;;5.30;1.00;;;;;;5096219;27;21122;-74
2024/02/27 06:42:41;;;;;;;32.53;15.50;;;5.30;1.00;;;;;;5090358;28;21033;-75
2024/02/27 06:45:10;;;;;;;19.13;15.10;;;5.50;1.00;;;;;;5089951;28;20241;-73
2024/02/27 06:47:38;;;;;;;18.60;16.05;;;5.60;1.00;;;;;;5090443;28;20245;-73
2024/02/27 06:50:07;;;;;;;19.55;16.27;;;5.70;1.00;;;;;;5089140;28;20237;-75
2024/02/27 06:52:34;;;;;;;26.38;17.75;;;5.80;1.00;;;;;;5092011;28;20238;-73
2024/02/27 06:55:03;;;;;;;16.08;14.38;;;5.90;1.00;;;;;;5089420;28;20340;-73
2024/02/27 06:57:33;;;;;;;19.38;15.45;;;6.00;1.00;;;;;;5092658;28;20315;-73
2024/02/27 07:00:00;;;;;;;23.88;17.85;;;6.20;1.00;;;;;;5084098;27;20744;-73
2024/02/27 07:02:27;;;;;;;20.48;16.38;;;6.20;1.00;;;;;;5106739;27;20294;-74
2024/02/27 07:04:56;;;;;;;22.53;17.53;;;6.30;1.00;;;;;;5089607;27;21552;-73
2024/02/27 07:07:24;;;;;;;34.65;18.17;;;6.40;1.00;;;;;;5093285;27;21020;-75
2024/02/27 07:09:51;;;;;;;20.25;16.90;;;6.50;1.00;;;;;;5086067;28;20304;-73
2024/02/27 07:12:18;;;;;;;18.63;16.37;;;6.50;1.00;;;;;;5091119;28;20385;-73
2024/02/27 07:14:47;;;;;;;21.38;16.85;;;6.60;1.00;;;;;;5098930;27;20523;-73
2024/02/27 07:17:16;;;;;;;38.43;17.70;;;6.70;1.00;;;;;;5064887;28;20691;-74
2024/02/27 07:19:45;;;;;;;33.20;18.40;;;6.70;1.00;;;;;;5102110;28;20450;-75
2024/02/27 07:22:12;;;;;;;22.77;17.40;;;6.70;1.00;;;;;;5092690;28;21001;-72
2024/02/27 07:24:40;;;;;;;20.83;17.23;;;6.70;1.00;;;;;;5099904;27;20554;-74
2024/02/27 07:27:08;;;;;;;25.57;18.17;;;6.80;1.00;;;;;;5112195;27;20528;-73
2024/02/27 07:29:35;;;;;;;25.23;18.30;;;7.00;1.00;;;;;;5110301;27;20484;-74
2024/02/27 07:32:03;;;;;;;35.27;20.37;;;7.10;1.00;;;;;;5108766;27;20469;-74
2024/02/27 07:34:32;;;;;;;24.90;18.60;;;7.10;1.00;;;;;;5109063;27;21279;-76
2024/02/27 07:37:01;;;;;;;25.23;18.80;;;7.30;1.00;;;;;;5109909;27;21189;-75
2024/02/27 07:39:29;;;;;;;24.83;19.67;;;7.30;1.00;;;;;;5106167;27;20459;-74
2024/02/27 07:41:56;;;;;;;34.80;20.53;;;7.40;1.00;;;;;;5093972;27;20461;-75
2024/02/27 07:44:23;;;;;;;31.63;20.30;;;7.50;1.00;;;;;;5089079;28;20466;-74
2024/02/27 07:46:50;;;;;;;31.87;20.03;;;7.50;1.00;;;;;;5090965;28;20590;-73
2024/02/27 07:49:19;;;;;;;38.07;21.50;;;7.60;1.00;;;;;;5089190;27;20535;-74
2024/02/27 07:51:46;;;;;;;39.83;21.77;;;7.60;1.00;;;;;;5093146;27;20454;-73
2024/02/27 07:54:15;;;;;;;29.43;21.23;;;7.70;1.00;;;;;;5108938;27;20561;-72
2024/02/27 07:56:43;;;;;;;49.67;21.80;;;7.80;1.00;;;;;;5112070;27;20479;-72
2024/02/27 07:59:11;;;;;;;31.83;21.17;;;7.80;1.00;;;;;;5105922;27;20489;-73
2024/02/27 08:01:39;;;;;;;41.23;22.03;;;7.90;1.00;;;;;;5098143;27;20978;-74
2024/02/27 08:04:06;;;;;;;37.10;20.67;;;8.00;1.00;;;;;;5086879;28;20939;-76
2024/02/27 08:06:34;;;;;;;29.30;19.77;;;8.00;1.00;;;;;;5088518;28;20529;-76
2024/02/27 08:09:01;;;;;;;42.97;22.87;;;8.00;1.00;;;;;;5089104;28;20981;-76
2024/02/27 08:11:29;;;;;;;35.50;21.30;;;8.00;1.00;;;;;;5089800;28;20513;-75
2024/02/27 08:13:57;;;;;;;27.97;19.07;;;8.00;1.00;;;;;;5074785;27;20520;-76
2024/02/27 08:16:25;;;;;;;29.70;18.73;;;7.90;1.00;;;;;;5106552;27;20456;-76
2024/02/27 08:18:53;;;;;;;31.00;20.30;;;8.00;1.00;;;;;;5110413;27;20599;-74
2024/02/27 08:21:22;;;;;;;28.93;19.70;;;8.00;1.00;;;;;;5097365;27;20482;-76
2024/02/27 08:23:51;;;;;;;33.73;23.20;;;8.00;1.00;;;;;;5101215;27;20481;-75
2024/02/27 08:26:18;;;;;;;33.60;21.60;;;8.00;1.00;;;;;;5094242;27;20458;-77
2024/02/27 08:28:45;;;;;;;34.47;21.70;;;8.00;1.00;;;;;;5094556;27;20555;-75
2024/02/27 08:31:12;;;;;;;28.37;20.43;;;8.10;1.00;;;;;;5091432;28;20454;-74
2024/02/27 08:33:39;;;;;;;31.93;20.37;;;8.00;1.00;;;;;;5088713;28;20457;-77
2024/02/27 08:36:07;;;;;;;31.97;21.80;;;8.10;1.00;;;;;;5084830;27;20489;-73
2024/02/27 08:38:34;;;;;;;36.07;24.60;;;8.10;1.00;;;;;;5095949;27;20469;-75
2024/02/27 08:41:06;;;;;;;26.97;20.53;;;8.20;1.00;;;;;;5095799;27;20461;-73
2024/02/27 08:43:33;;;;;;;37.43;21.83;;;8.20;1.00;;;;;;5090382;28;20820;-73
2024/02/27 08:46:00;;;;;;;30.40;21.43;;;8.20;1.00;;;;;;5088483;28;20454;-72
2024/02/27 08:48:27;;;;;;;31.33;21.03;;;8.30;1.00;;;;;;5087455;28;20507;-72
2024/02/27 08:50:54;;;;;;;32.43;24.43;;;8.30;1.00;;;;;;5085848;28;20540;-71
2024/02/27 08:53:22;;;;;;;30.10;20.80;;;8.40;1.00;;;;;;5071835;28;20471;-74
2024/02/27 08:55:48;;;;;;;30.93;21.43;;;8.40;1.00;;;;;;5074480;27;20513;-74
2024/02/27 08:58:17;;;;;;;30.50;22.00;;;8.50;1.00;;;;;;5085708;27;20833;-73
2024/02/27 09:00:45;;;;;;;29.20;21.13;;;8.30;1.00;;;;;;5092277;28;20446;-74
2024/02/27 09:03:12;;;;;;;33.50;20.50;;;8.20;1.00;;;;;;5103924;27;20461;-74
2024/02/27 09:05:43;;;;;;;39.03;23.33;;;8.20;1.00;;;;;;5106077;27;20462;-73
2024/02/27 09:08:12;;;;;;;28.30;21.17;;;8.20;1.00;;;;;;5104727;28;21930;-74
2024/02/27 09:10:40;;;;;;;28.47;20.20;;;8.30;1.00;;;;;;5096410;28;20458;-74
2024/02/27 09:13:07;;;;;;;25.93;21.37;;;8.30;1.00;;;;;;5107380;27;20553;-73
2024/02/27 09:15:36;;;;;;;28.93;20.87;;;8.20;1.00;;;;;;5113396;27;20454;-75
2024/02/27 09:18:04;;;;;;;27.03;20.17;;;8.30;1.00;;;;;;5109117;27;20477;-75
2024/02/27 09:20:31;;;;;;;36.40;21.00;;;8.40;1.00;;;;;;5111447;27;20450;-74
2024/02/27 09:22:59;;;;;;;35.90;23.20;;;8.40;1.00;;;;;;5112059;27;21188;-73
2024/02/27 09:25:26;;;;;;;33.27;21.67;;;8.40;1.00;;;;;;5107210;27;20485;-73
2024/02/27 09:27:53;;;;;;;31.20;21.40;;;8.30;1.00;;;;;;5092806;28;20461;-73
2024/02/27 09:30:20;;;;;;;30.80;21.50;;;8.30;1.00;;;;;;5087858;28;20482;-73
2024/02/27 09:32:53;;;;;;;28.13;20.33;;;8.30;1.00;;;;;;5079650;28;20615;-73
2024/02/27 09:35:22;;;;;;;26.33;21.10;;;8.20;1.00;;;;;;5082587;27;20551;-72
2024/02/27 09:37:49;;;;;;;36.87;21.87;;;8.30;1.00;;;;;;5084363;27;21233;-73
2024/02/27 09:40:16;;;;;;;27.37;21.17;;;8.30;1.00;;;;;;5092988;28;20463;-78
2024/02/27 09:42:45;;;;;;;36.40;21.77;;;8.30;1.00;;;;;;5106820;27;20470;-78
2024/02/27 09:45:16;;;;;;;34.63;21.70;;;8.20;1.00;;;;;;5094399;28;20426;-76
2024/02/27 09:47:48;;;;;;;34.80;21.43;;;8.20;1.00;;;;;;5099945;28;20470;-79
2024/02/27 09:50:19;;;;;;;29.50;20.37;;;8.20;1.00;;;;;;5097117;28;20447;-79
2024/02/27 09:52:49;;;;;;;25.60;18.20;;;8.20;1.00;;;;;;5094780;28;20561;-79
2024/02/27 09:55:17;;;;;;;28.07;20.30;;;8.20;1.00;;;;;;5095483;28;20458;-80
2024/02/27 09:57:48;;;;;;;26.53;20.70;;;8.30;1.00;;;;;;5095939;28;20464;-76
2024/02/27 10:00:18;;;;;;;31.87;20.60;;;8.30;1.00;;;;;;5091261;28;20562;-77
2024/02/27 10:02:48;;;;;;;26.13;19.20;;;8.40;1.00;;;;;;5094080;28;20454;-78
2024/02/27 10:05:18;;;;;;;32.63;20.43;;;8.50;1.00;;;;;;5099863;27;20457;-76
2024/02/27 10:07:49;;;;;;;33.80;22.17;;;8.70;1.00;;;;;;5099387;28;20486;-76
2024/02/27 10:10:17;;;;;;;28.03;21.10;;;8.70;1.00;;;;;;5095253;28;20864;-80
2024/02/27 10:12:44;;;;;;;29.70;19.70;;;8.80;1.00;;;;;;5097011;28;20550;-77
2024/02/27 10:15:14;;;;;;;31.73;21.53;;;8.90;1.00;;;;;;5094125;28;20467;-77
2024/02/27 10:17:43;;;;;;;24.00;18.87;;;9.00;1.00;;;;;;5092175;28;20450;-78
2024/02/27 10:20:13;;;;;;;24.57;20.90;;;9.10;1.00;;;;;;5104296;27;20463;-77
2024/02/27 10:22:41;;;;;;;36.97;21.00;;;9.10;1.00;;;;;;5090706;28;20569;-77
2024/02/27 10:25:14;;;;;;;29.93;20.20;;;9.00;1.00;;;;;;5092316;28;20451;-77
2024/02/27 10:27:42;;;;;;;21.23;18.80;;;9.00;1.00;;;;;;5095003;28;20473;-78
2024/02/27 10:30:11;;;;;;;26.97;19.90;;;8.90;1.00;;;;;;5096494;28;20540;-77
2024/02/27 10:32:40;;;;;;;35.60;22.00;;;8.90;1.00;;;;;;5095655;27;21179;-77
2024/02/27 10:35:08;;;;;;;32.63;18.70;;;9.00;1.00;;;;;;5094505;28;20459;-79
2024/02/27 10:37:36;;;;;;;29.60;20.90;;;9.00;1.00;;;;;;5095683;28;20469;-77
2024/02/27 10:40:10;;;;;;;49.47;22.80;;;9.00;1.00;;;;;;5104057;27;20431;-78
2024/02/27 10:42:40;;;;;;;33.30;18.90;;;9.00;1.00;;;;;;5092897;28;20505;-77
2024/02/27 10:45:07;;;;;;;26.83;17.23;;;9.10;1.00;;;;;;5099135;27;20430;-77
2024/02/27 10:47:35;;;;;;;20.43;18.00;;;9.10;1.00;;;;;;5100761;27;20462;-78
2024/02/27 10:50:09;;;;;;;20.43;18.00;;;9.20;1.00;;;;;;5105369;27;20463;-80
2024/02/27 10:52:38;;;;;;;44.53;20.93;;;9.30;1.00;;;;;;5109859;27;20509;-79
2024/02/27 10:55:12;;;;;;;34.23;19.47;;;9.30;1.00;;;;;;5098792;28;20445;-79
2024/02/27 10:57:39;;;;;;;29.27;18.50;;;9.40;1.00;;;;;;5114449;27;20531;-78
2024/02/27 11:00:10;;;;;;;21.53;17.57;;;9.40;1.00;;;;;;5107765;27;20450;-73
2024/02/27 11:02:43;;;;;;;25.10;17.53;;;9.40;1.00;;;;;;5112548;27;20519;-72
2024/02/27 11:05:12;;;;;;;31.43;18.40;;;9.30;1.00;;;;;;5108818;27;20545;-72
2024/02/27 11:07:40;;;;;;;23.27;16.53;;;9.40;1.00;;;;;;5110839;27;21416;-74
2024/02/27 11:10:11;;;;;;;26.00;18.80;;;9.50;1.00;;;;;;5108158;27;20962;-73
2024/02/27 11:12:39;;;;;;;36.87;18.70;;;9.60;1.00;;;;;;5108764;27;21000;-74
2024/02/27 11:15:10;;;;;;;37.03;19.80;;;9.50;1.00;;;;;;5111779;27;20454;-74
2024/02/27 11:17:40;;;;;;;27.00;19.13;;;9.60;1.00;;;;;;5100628;27;20458;-74
2024/02/27 11:20:08;;;;;;;26.47;19.03;;;9.60;1.00;;;;;;5088630;28;20491;-74
2024/02/27 11:22:36;;;;;;;24.87;19.20;;;9.60;1.00;;;;;;5098166;27;20581;-73
2024/02/27 11:25:06;;;;;;;24.07;18.33;;;9.70;1.00;;;;;;5091133;28;20495;-74
2024/02/27 11:27:36;;;;;;;25.10;18.27;;;9.90;1.00;;;;;;5107233;27;20600;-74
2024/02/27 11:30:06;;;;;;;27.67;17.47;;;10.10;1.00;;;;;;5104667;27;20518;-73
2024/02/27 11:32:34;;;;;;;43.97;20.23;;;10.20;1.00;;;;;;5089970;28;20510;-72
2024/02/27 11:35:06;;;;;;;34.20;18.70;;;10.40;1.00;;;;;;5083924;28;20443;-72
2024/02/27 11:37:33;;;;;;;25.97;16.73;;;10.40;1.00;;;;;;5090530;28;20450;-74
2024/02/27 11:40:00;;;;;;;25.23;18.60;;;10.50;1.00;;;;;;5086189;27;20887;-73
2024/02/27 11:42:37;;;;;;;26.70;18.70;;;10.50;1.00;;;;;;5090679;27;20528;-73
2024/02/27 11:45:09;;;;;;;23.70;18.63;;;10.50;1.00;;;;;;5085191;28;20509;-74
2024/02/27 11:47:38;;;;;;;21.77;16.30;;;10.60;1.00;;;;;;5097894;27;20573;-75
2024/02/27 11:50:10;;;;;;;32.27;18.03;;;10.50;1.00;;;;;;5098539;27;20547;-74
2024/02/27 11:52:37;;;;;;;22.20;16.07;;;10.50;1.00;;;;;;5088524;27;20555;-74
2024/02/27 11:55:09;;;;;;;105.10;28.80;;;10.50;1.00;;;;;;5107521;27;20529;-73
2024/02/27 11:57:38;;;;;;;25.10;16.20;;;10.50;1.00;;;;;;5107039;27;21876;-76
2024/02/27 12:00:14;;;;;;;19.40;15.07;;;10.40;1.00;;;;;;5106231;27;20502;-73
2024/02/27 12:02:47;;;;;;;28.10;15.87;;;10.30;1.00;;;;;;5106675;27;21310;-73
2024/02/27 12:05:16;;;;;;;16.57;13.97;;;10.20;1.00;;;;;;5106519;27;20451;-72
2024/02/27 12:07:43;;;;;;;16.00;13.30;;;10.10;1.00;;;;;;5089451;28;20552;-74
2024/02/27 12:10:14;;;;;;;15.60;14.03;;;10.00;1.00;;;;;;5088809;28;21002;-76
2024/02/27 12:12:42;;;;;;;25.50;17.17;;;10.00;1.00;;;;;;5086894;28;20481;-75
2024/02/27 12:15:11;;;;;;;26.00;15.40;;;10.10;1.00;;;;;;5086416;28;20462;-75
2024/02/27 12:17:39;;;;;;;20.40;16.20;;;10.00;1.00;;;;;;5099284;27;20459;-75
2024/02/27 12:20:09;;;;;;;30.40;16.33;;;10.10;1.00;;;;;;5090576;28;20481;-76
2024/02/27 12:22:36;;;;;;;27.63;15.80;;;10.20;1.00;;;;;;5090860;28;20549;-77
2024/02/27 12:25:04;;;;;;;23.77;13.60;;;10.30;1.00;;;;;;5096765;27;20549;-76
2024/02/27 12:27:32;;;;;;;16.27;13.73;;;10.30;1.00;;;;;;5092680;28;21049;-76
2024/02/27 12:30:00;;;;;;;22.30;14.30;;;10.40;1.00;;;;;;5089807;28;20441;-77
2024/02/27 12:32:30;;;;;;;17.27;12.80;;;10.40;1.00;;;;;;5100939;27;21093;-76
2024/02/27 12:34:56;;;;;;;26.20;14.70;;;10.60;1.00;;;;;;5091630;28;20464;-76
2024/02/27 12:37:23;;;;;;;23.83;16.13;;;10.60;1.00;;;;;;5098235;27;20662;-76
2024/02/27 12:39:51;;;;;;;25.17;13.20;;;10.60;1.00;;;;;;5091120;28;20486;-76
2024/02/27 12:42:18;;;;;;;26.47;12.40;;;10.60;1.00;;;;;;5090444;28;20467;-76
2024/02/27 12:44:48;;;;;;;18.10;12.80;;;10.60;1.00;;;;;;5099278;27;20457;-77
2024/02/27 12:47:16;;;;;;;27.33;12.80;;;10.40;1.00;;;;;;5097933;27;20551;-77
2024/02/27 12:49:44;;;;;;;23.37;14.67;;;10.30;1.00;;;;;;5092172;28;20458;-76
2024/02/27 12:52:16;;;;;;;15.10;13.60;;;10.20;1.00;;;;;;5088679;28;20874;-75
2024/02/27 12:54:45;;;;;;;29.53;16.23;;;10.10;1.00;;;;;;5089021;28;21266;-75